Terminal Aerodrome Forecast
Issued by NWS Greer, SC

Home | Current Version | Previous Version | Text Only | Print | Product List | Glossary On
Versions: 1 2 3 4 5 6 7 8 9 10 11 12 13 14 15 16 17 18 19 20 21 22 23 24 25 26 27 28 29 30 31 32 33 34 35 36 37 38 39 40 41 42 43 44 45 46 47
000
FTUS42 KGSP 300813 AAB
TAFAVL
TAF AMD
KAVL 300813Z 3008/3106 33004KT 6SM BR SCT090
      TEMPO 3008/3012 4SM BR OVC003
     FM301300 34004KT P6SM FEW050 SCT120
     FM301500 34005KT P6SM SCT060
     FM301800 32005KT P6SM BKN070 PROB30 3020/3024 4SM -TSRA
      OVC040CB
     FM310000 31004KT P6SM VCTS SCT070CB=

USA.gov is the U.S. government's official web portal to all federal, state and local government web resources and services.